Time;durP1;ratioP1;P1;durP2;ratioP2;P2;SDS_P1;SDS_P2;PMS_P1;PMS_P2;Temp;Humidity;BMP_temperature;BMP_pressure;BME280_temperature;BME280_humidity;BME280_pressure;Samples;Min_cycle;Max_cycle;Signal;HPM_P1;HPM_P2
2021/07/24 00:01:56;;;;;;;;;;;24.60;67.60;;;;;;5186050;28;20381;-64
2021/07/24 00:04:29;;;;;;;;;;;24.60;68.20;;;;;;5204560;28;20404;-64
2021/07/24 00:07:01;;;;;;;;;;;24.60;67.60;;;;;;5198520;28;19936;-64
2021/07/24 00:09:33;;;;;;;;;;;24.60;67.60;;;;;;5196891;28;20300;-64
2021/07/24 00:12:13;;;;;;;;;;;24.60;67.60;;;;;;5200569;28;20833;-65
2021/07/24 00:14:45;;;;;;;;;;;24.60;67.70;;;;;;5196357;28;19931;-64
2021/07/24 00:17:17;;;;;;;;;;;24.60;67.60;;;;;;5201143;28;19928;-64
2021/07/24 00:19:50;;;;;;;;;;;24.60;67.60;;;;;;5203503;28;20432;-65
2021/07/24 00:22:33;;;;;;;;;;;24.60;67.70;;;;;;5200645;28;19929;-63
2021/07/24 00:25:05;;;;;;;;;;;24.60;67.60;;;;;;5197951;28;19931;-64
2021/07/24 00:27:38;;;;;;;;;;;24.60;67.70;;;;;;5197784;28;20393;-64
2021/07/24 00:30:11;;;;;;;;;;;24.60;67.70;;;;;;5201481;28;19925;-63
2021/07/24 00:32:50;;;;;;;;;;;24.50;67.70;;;;;;5188153;28;19924;-64
2021/07/24 00:35:22;;;;;;;;;;;24.50;67.70;;;;;;5201721;28;19929;-65
2021/07/24 00:38:02;;;;;;;;;;;24.60;67.70;;;;;;5201101;28;20584;-64
2021/07/24 00:40:36;;;;;;;;;;;24.50;67.70;;;;;;5197507;28;20321;-63
2021/07/24 00:43:09;;;;;;;;;;;24.50;67.70;;;;;;5204128;28;19931;-64
2021/07/24 00:45:44;;;;;;;;;;;24.50;67.70;;;;;;5188270;28;19932;-64
2021/07/24 00:48:19;;;;;;;;;;;24.50;67.70;;;;;;5190502;28;19924;-65
2021/07/24 00:51:10;;;;;;;;;;;24.50;67.70;;;;;;5197620;28;19936;-63
2021/07/24 00:53:42;;;;;;;;;;;24.50;67.70;;;;;;5197216;28;19940;-63
2021/07/24 00:56:16;;;;;;;;;;;24.50;67.70;;;;;;5198386;28;20290;-64
2021/07/24 00:58:48;;;;;;;;;;;24.50;67.70;;;;;;5181140;28;19929;-64
2021/07/24 01:01:21;;;;;;;;;;;24.50;67.60;;;;;;5185254;28;19921;-63
2021/07/24 01:03:54;;;;;;;;;;;24.50;67.70;;;;;;5178889;28;20343;-64
2021/07/24 01:06:30;;;;;;;;;;;24.50;67.70;;;;;;5197088;28;19928;-64
2021/07/24 01:09:02;;;;;;;;;;;24.50;67.70;;;;;;5202057;28;20022;-64
2021/07/24 01:11:36;;;;;;;;;;;24.50;67.70;;;;;;5182613;28;19924;-64
2021/07/24 01:14:10;;;;;;;;;;;24.50;67.80;;;;;;5172334;28;20421;-63
2021/07/24 01:16:42;;;;;;;;;;;24.50;67.70;;;;;;5187347;28;19928;-63
2021/07/24 01:19:24;;;;;;;;;;;24.50;67.70;;;;;;5196611;28;20813;-64
2021/07/24 01:21:56;;;;;;;;;;;24.50;67.70;;;;;;5183932;28;19932;-64
2021/07/24 01:24:29;;;;;;;;;;;24.50;67.80;;;;;;5180814;28;19924;-64
2021/07/24 01:27:07;;;;;;;;;;;24.50;67.70;;;;;;5199409;28;19928;-64
2021/07/24 01:29:40;;;;;;;;;;;24.50;67.80;;;;;;5214117;28;20401;-64
2021/07/24 01:32:17;;;;;;;;;;;24.50;67.70;;;;;;5199550;28;20304;-65
2021/07/24 01:34:50;;;;;;;;;;;24.50;67.80;;;;;;5199477;28;19925;-64
2021/07/24 01:37:26;;;;;;;;;;;24.50;67.70;;;;;;5173362;28;20179;-64
2021/07/24 01:39:58;;;;;;;;;;;24.50;67.70;;;;;;5194675;28;19931;-65
2021/07/24 01:42:32;;;;;;;;;;;24.50;67.80;;;;;;5214431;28;19951;-65
2021/07/24 01:45:05;;;;;;;;;;;24.50;67.70;;;;;;5177986;28;19924;-65
2021/07/24 01:47:38;;;;;;;;;;;24.50;67.70;;;;;;5183793;28;19924;-65
2021/07/24 01:53:09;;;;;;;;;;;24.50;67.80;;;;;;5199355;28;20443;-65
2021/07/24 01:55:41;;;;;;;;;;;24.50;67.70;;;;;;5197981;28;19925;-64
2021/07/24 01:58:18;;;;;;;;;;;24.50;67.80;;;;;;5195046;28;19932;-65
2021/07/24 02:01:00;;;;;;;;;;;24.40;67.80;;;;;;5209253;28;20492;-64
2021/07/24 02:03:45;;;;;;;;;;;24.50;67.80;;;;;;5156584;28;19935;-64
2021/07/24 02:06:43;;;;;;;;;;;24.50;67.80;;;;;;5180471;28;22708;-65
2021/07/24 02:09:21;;;;;;;;;;;24.40;67.70;;;;;;5184230;28;19929;-64
2021/07/24 02:12:01;;;;;;;;;;;24.50;67.80;;;;;;5186003;28;19928;-65
2021/07/24 02:14:41;;;;;;;;;;;24.50;68.40;;;;;;5172465;28;20941;-63
2021/07/24 02:17:20;;;;;;;;;;;24.40;67.70;;;;;;5165533;28;19924;-64
2021/07/24 02:19:56;;;;;;;;;;;24.40;67.70;;;;;;5192203;28;19945;-64
2021/07/24 02:22:28;;;;;;;;;;;24.40;67.80;;;;;;5188984;28;19924;-64
2021/07/24 02:25:02;;;;;;;;;;;24.50;67.80;;;;;;5204884;28;19935;-64
2021/07/24 02:27:38;;;;;;;;;;;24.40;67.70;;;;;;5189261;28;20385;-64
2021/07/24 02:30:14;;;;;;;;;;;24.40;67.70;;;;;;5216518;28;19925;-65
2021/07/24 02:32:47;;;;;;;;;;;24.40;67.70;;;;;;5189665;28;19924;-64
2021/07/24 02:35:20;;;;;;;;;;;24.40;67.80;;;;;;5204180;28;19924;-64
2021/07/24 02:38:10;;;;;;;;;;;24.40;67.80;;;;;;5203405;28;19924;-64
2021/07/24 02:40:44;;;;;;;;;;;24.40;67.80;;;;;;5182207;28;19928;-64
2021/07/24 02:43:19;;;;;;;;;;;24.40;67.80;;;;;;5190571;28;19929;-64
2021/07/24 02:45:52;;;;;;;;;;;24.40;67.80;;;;;;5202167;28;19939;-65
2021/07/24 02:48:24;;;;;;;;;;;24.40;67.80;;;;;;5219177;28;19921;-65
2021/07/24 02:51:10;;;;;;;;;;;24.40;67.80;;;;;;5193680;28;19921;-64
2021/07/24 02:53:44;;;;;;;;;;;24.40;67.80;;;;;;5186904;28;19928;-64
2021/07/24 02:56:18;;;;;;;;;;;24.40;67.80;;;;;;5203729;28;19921;-64
2021/07/24 02:58:50;;;;;;;;;;;24.40;67.80;;;;;;5201828;28;19940;-64
2021/07/24 03:01:23;;;;;;;;;;;24.40;67.80;;;;;;5203865;28;19925;-64
2021/07/24 03:03:55;;;;;;;;;;;24.40;67.80;;;;;;5202752;28;20278;-64
2021/07/24 03:06:27;;;;;;;;;;;24.40;67.80;;;;;;5200987;28;19931;-65
2021/07/24 03:09:03;;;;;;;;;;;24.40;67.80;;;;;;5203855;28;19936;-64
2021/07/24 03:11:35;;;;;;;;;;;24.40;67.90;;;;;;5207831;28;19924;-64
2021/07/24 03:14:07;;;;;;;;;;;24.40;67.80;;;;;;5187634;28;19929;-63
2021/07/24 03:16:40;;;;;;;;;;;24.40;67.90;;;;;;5204067;28;19920;-65
2021/07/24 03:19:12;;;;;;;;;;;24.40;67.90;;;;;;5185712;28;19932;-65
2021/07/24 03:21:44;;;;;;;;;;;24.40;67.90;;;;;;5199646;28;19924;-64
2021/07/24 03:24:17;;;;;;;;;;;24.40;67.80;;;;;;5191830;28;20582;-65
2021/07/24 03:26:49;;;;;;;;;;;24.40;67.90;;;;;;5206915;28;19983;-64
2021/07/24 03:29:22;;;;;;;;;;;24.40;67.90;;;;;;5205460;28;19924;-64
2021/07/24 03:31:55;;;;;;;;;;;24.40;67.90;;;;;;5201647;28;20308;-64
2021/07/24 03:34:27;;;;;;;;;;;24.40;67.90;;;;;;5196464;28;19929;-64
2021/07/24 03:36:59;;;;;;;;;;;24.40;67.90;;;;;;5214587;28;19931;-64
2021/07/24 03:39:31;;;;;;;;;;;24.40;67.90;;;;;;5199685;28;20339;-64
2021/07/24 03:42:04;;;;;;;;;;;24.40;67.90;;;;;;5197346;28;19941;-65
2021/07/24 03:44:36;;;;;;;;;;;24.40;67.90;;;;;;5197456;28;19928;-65
2021/07/24 03:47:08;;;;;;;;;;;24.40;67.90;;;;;;5184563;28;20441;-64
2021/07/24 03:49:40;;;;;;;;;;;24.40;67.90;;;;;;5196456;28;19929;-64
2021/07/24 03:52:13;;;;;;;;;;;24.40;67.90;;;;;;5201893;28;20000;-64
2021/07/24 03:54:45;;;;;;;;;;;24.40;67.90;;;;;;5217903;28;20423;-64
2021/07/24 03:57:17;;;;;;;;;;;24.40;67.90;;;;;;5199127;28;19931;-65
2021/07/24 03:59:50;;;;;;;;;;;24.30;67.80;;;;;;5203577;28;19929;-64
2021/07/24 04:02:24;;;;;;;;;;;24.40;67.90;;;;;;5200808;28;19940;-64
2021/07/24 04:04:56;;;;;;;;;;;24.40;67.90;;;;;;5200741;28;19936;-64
2021/07/24 04:07:28;;;;;;;;;;;24.40;67.90;;;;;;5201333;28;19932;-64
2021/07/24 04:10:01;;;;;;;;;;;24.40;68.00;;;;;;5196103;28;19932;-63
2021/07/24 04:12:34;;;;;;;;;;;24.30;67.90;;;;;;5200425;28;19932;-64
2021/07/24 04:15:07;;;;;;;;;;;24.30;67.90;;;;;;5204507;28;19921;-64
2021/07/24 04:17:40;;;;;;;;;;;24.30;67.90;;;;;;5197777;28;20385;-65
2021/07/24 04:20:12;;;;;;;;;;;24.30;67.90;;;;;;5199299;28;20424;-64
2021/07/24 04:22:44;;;;;;;;;;;24.30;67.90;;;;;;5188555;28;19935;-64
2021/07/24 04:25:17;;;;;;;;;;;24.30;67.90;;;;;;5195653;28;19924;-64
2021/07/24 04:27:49;;;;;;;;;;;24.40;67.90;;;;;;5196167;28;19935;-64
2021/07/24 04:30:21;;;;;;;;;;;24.30;67.90;;;;;;5200018;28;19921;-65
2021/07/24 04:32:54;;;;;;;;;;;24.30;67.90;;;;;;5199930;28;19924;-64
2021/07/24 04:35:26;;;;;;;;;;;24.40;68.00;;;;;;5199004;28;19924;-64
2021/07/24 04:37:58;;;;;;;;;;;24.30;67.90;;;;;;5176382;28;19929;-64
2021/07/24 04:40:31;;;;;;;;;;;24.30;67.90;;;;;;5193130;28;19964;-64
2021/07/24 04:43:03;;;;;;;;;;;24.30;67.90;;;;;;5193385;28;19925;-64
2021/07/24 04:45:35;;;;;;;;;;;24.40;67.90;;;;;;5191762;28;19924;-63
2021/07/24 04:48:08;;;;;;;;;;;24.30;67.80;;;;;;5194080;28;19929;-64
2021/07/24 04:50:47;;;;;;;;;;;24.40;68.00;;;;;;5191130;28;19928;-64
2021/07/24 04:53:20;;;;;;;;;;;24.30;67.90;;;;;;5187748;28;21129;-64
2021/07/24 04:55:52;;;;;;;;;;;24.30;67.90;;;;;;5194919;28;19927;-64
2021/07/24 04:58:24;;;;;;;;;;;24.30;67.90;;;;;;5186398;28;19925;-64
2021/07/24 05:00:57;;;;;;;;;;;24.30;67.90;;;;;;5190842;28;19932;-64
2021/07/24 05:03:30;;;;;;;;;;;24.30;68.00;;;;;;5172811;28;19932;-64
2021/07/24 05:06:04;;;;;;;;;;;24.40;68.10;;;;;;5191604;28;19924;-65
2021/07/24 05:08:36;;;;;;;;;;;24.30;68.00;;;;;;5185833;28;20328;-65
2021/07/24 05:11:09;;;;;;;;;;;24.40;68.10;;;;;;5186535;28;19924;-64
2021/07/24 05:13:41;;;;;;;;;;;24.40;68.10;;;;;;5185042;28;19959;-64
2021/07/24 05:16:13;;;;;;;;;;;24.40;68.10;;;;;;5195674;28;19928;-65
2021/07/24 05:18:46;;;;;;;;;;;24.40;68.10;;;;;;5194458;28;19929;-64
2021/07/24 05:21:18;;;;;;;;;;;24.30;68.10;;;;;;5178778;28;20308;-64
2021/07/24 05:23:50;;;;;;;;;;;24.40;68.10;;;;;;5193851;28;19925;-65
2021/07/24 05:26:23;;;;;;;;;;;24.30;68.10;;;;;;5193457;28;19928;-65
2021/07/24 05:28:55;;;;;;;;;;;24.40;68.10;;;;;;5195501;28;19932;-65
2021/07/24 05:31:29;;;;;;;;;;;24.40;68.10;;;;;;5196547;28;20317;-65
2021/07/24 05:34:02;;;;;;;;;;;24.40;68.10;;;;;;5178547;28;19928;-64
2021/07/24 05:36:34;;;;;;;;;;;24.40;68.10;;;;;;5187065;28;19924;-64
2021/07/24 05:39:06;;;;;;;;;;;24.40;68.10;;;;;;5185687;28;20035;-66
2021/07/24 05:41:38;;;;;;;;;;;24.40;68.10;;;;;;5182790;28;20450;-64
2021/07/24 05:44:13;;;;;;;;;;;24.40;68.20;;;;;;5182539;28;20057;-64
2021/07/24 05:46:45;;;;;;;;;;;24.40;68.20;;;;;;5192983;28;19925;-63
2021/07/24 05:49:18;;;;;;;;;;;24.40;68.20;;;;;;5193523;28;20344;-63
2021/07/24 05:51:50;;;;;;;;;;;24.40;68.20;;;;;;5175204;28;19933;-63
2021/07/24 05:54:23;;;;;;;;;;;24.40;68.20;;;;;;5154427;28;20114;-63
2021/07/24 05:56:55;;;;;;;;;;;24.40;68.10;;;;;;5165436;28;19944;-63
2021/07/24 05:59:27;;;;;;;;;;;24.40;68.30;;;;;;5156386;28;19936;-63
2021/07/24 06:02:01;;;;;;;;;;;24.40;68.20;;;;;;5179896;28;19936;-63
2021/07/24 06:04:33;;;;;;;;;;;24.40;68.20;;;;;;5182549;28;20289;-63
2021/07/24 06:07:06;;;;;;;;;;;24.40;68.20;;;;;;5182256;28;19939;-63
2021/07/24 06:09:38;;;;;;;;;;;24.40;68.20;;;;;;5178599;28;19935;-62
2021/07/24 06:12:10;;;;;;;;;;;24.40;68.30;;;;;;5182165;28;19929;-63
2021/07/24 06:14:42;;;;;;;;;;;24.40;68.30;;;;;;5184603;28;19932;-62
2021/07/24 06:17:15;;;;;;;;;;;24.50;68.30;;;;;;5171381;28;19929;-62
2021/07/24 06:19:47;;;;;;;;;;;24.50;68.30;;;;;;5177166;28;19977;-62
2021/07/24 06:22:20;;;;;;;;;;;24.50;68.30;;;;;;5151260;28;20545;-62
2021/07/24 06:24:52;;;;;;;;;;;24.40;68.30;;;;;;5154661;28;19925;-63
2021/07/24 06:27:24;;;;;;;;;;;24.50;68.30;;;;;;5180635;28;20640;-62
2021/07/24 06:29:56;;;;;;;;;;;24.50;68.30;;;;;;5176237;28;20314;-63
2021/07/24 06:32:28;;;;;;;;;;;24.50;68.30;;;;;;5168587;28;20302;-63
2021/07/24 06:35:01;;;;;;;;;;;24.50;68.30;;;;;;5186417;28;20470;-63
2021/07/24 06:37:33;;;;;;;;;;;24.50;68.40;;;;;;5177228;28;20381;-63
2021/07/24 06:40:06;;;;;;;;;;;24.50;68.40;;;;;;5169149;28;20378;-63
2021/07/24 06:42:39;;;;;;;;;;;24.50;68.40;;;;;;5174732;28;19928;-63
2021/07/24 06:45:11;;;;;;;;;;;24.50;68.30;;;;;;5180712;28;19925;-63
2021/07/24 06:47:43;;;;;;;;;;;24.50;68.40;;;;;;5164829;28;19928;-63
2021/07/24 06:50:15;;;;;;;;;;;24.50;68.40;;;;;;5166011;28;19928;-63
2021/07/24 06:52:47;;;;;;;;;;;24.50;68.40;;;;;;5174833;28;19928;-63
2021/07/24 06:55:20;;;;;;;;;;;24.50;68.50;;;;;;5163827;28;19925;-63
2021/07/24 06:57:52;;;;;;;;;;;24.50;68.50;;;;;;5189037;28;21913;-64
2021/07/24 07:00:24;;;;;;;;;;;24.50;68.50;;;;;;5178515;28;19929;-64
2021/07/24 07:02:58;;;;;;;;;;;24.50;68.50;;;;;;5182888;28;19935;-62
2021/07/24 07:05:32;;;;;;;;;;;24.50;68.60;;;;;;5190012;28;19935;-63
2021/07/24 07:08:04;;;;;;;;;;;24.50;68.50;;;;;;5192543;28;19929;-63
2021/07/24 07:10:36;;;;;;;;;;;24.50;68.60;;;;;;5189608;28;20977;-62
2021/07/24 07:13:08;;;;;;;;;;;24.50;68.60;;;;;;5190614;28;20348;-63
2021/07/24 07:15:41;;;;;;;;;;;24.50;68.60;;;;;;5196297;28;20599;-63
2021/07/24 07:18:13;;;;;;;;;;;24.50;68.60;;;;;;5180356;28;20159;-63
2021/07/24 07:20:48;;;;;;;;;;;24.50;68.50;;;;;;5187804;28;20314;-63
2021/07/24 07:23:20;;;;;;;;;;;24.60;68.60;;;;;;5196670;28;19929;-63
2021/07/24 07:25:53;;;;;;;;;;;24.60;68.60;;;;;;5170129;28;20468;-63
2021/07/24 07:28:25;;;;;;;;;;;24.60;68.60;;;;;;5161198;28;20371;-63
2021/07/24 07:30:57;;;;;;;;;;;24.60;68.50;;;;;;5185468;28;19925;-63
2021/07/24 07:33:30;;;;;;;;;;;24.60;68.50;;;;;;5175029;28;19932;-63
2021/07/24 07:36:02;;;;;;;;;;;24.60;68.40;;;;;;5196551;28;19925;-63
2021/07/24 07:38:34;;;;;;;;;;;24.60;68.50;;;;;;5177979;28;19944;-63
2021/07/24 07:41:07;;;;;;;;;;;24.60;68.50;;;;;;5202487;28;20374;-63
2021/07/24 07:43:39;;;;;;;;;;;24.60;68.40;;;;;;5196946;28;19924;-63
2021/07/24 07:46:12;;;;;;;;;;;24.60;68.50;;;;;;5201710;28;20305;-63
2021/07/24 07:48:44;;;;;;;;;;;24.60;68.40;;;;;;5197865;28;19928;-63
2021/07/24 07:51:16;;;;;;;;;;;24.60;68.30;;;;;;5198118;28;19948;-63
2021/07/24 07:53:48;;;;;;;;;;;24.60;68.40;;;;;;5199656;28;20600;-62
2021/07/24 07:56:21;;;;;;;;;;;24.60;68.40;;;;;;5181714;28;19929;-63
2021/07/24 07:58:53;;;;;;;;;;;24.70;68.50;;;;;;5195425;28;19932;-64
2021/07/24 08:01:25;;;;;;;;;;;24.70;68.40;;;;;;5198374;28;19932;-63
2021/07/24 08:03:57;;;;;;;;;;;24.70;68.50;;;;;;5187933;28;19925;-63
2021/07/24 08:06:30;;;;;;;;;;;24.70;68.50;;;;;;5182167;28;19925;-63
2021/07/24 08:09:02;;;;;;;;;;;24.60;68.40;;;;;;5182462;28;19925;-64
2021/07/24 08:11:34;;;;;;;;;;;24.70;68.50;;;;;;5191123;28;19924;-63
2021/07/24 08:14:06;;;;;;;;;;;24.60;68.40;;;;;;5190882;28;19928;-63
2021/07/24 08:16:42;;;;;;;;;;;24.70;68.50;;;;;;5186009;28;19940;-63
2021/07/24 08:19:14;;;;;;;;;;;24.70;68.50;;;;;;5186100;28;19936;-62
2021/07/24 08:21:46;;;;;;;;;;;24.70;68.50;;;;;;5191283;28;20389;-64
2021/07/24 08:24:18;;;;;;;;;;;24.70;68.50;;;;;;5184200;28;20397;-62
2021/07/24 08:26:51;;;;;;;;;;;24.60;68.40;;;;;;5192384;28;19929;-63
2021/07/24 08:29:23;;;;;;;;;;;24.70;68.50;;;;;;5190384;28;19932;-61
2021/07/24 08:31:56;;;;;;;;;;;24.60;68.50;;;;;;5173247;28;19929;-63
2021/07/24 08:34:28;;;;;;;;;;;24.70;68.60;;;;;;5181645;28;19932;-64
2021/07/24 08:37:00;;;;;;;;;;;24.60;68.60;;;;;;5172590;28;20428;-63
2021/07/24 08:39:35;;;;;;;;;;;24.60;68.50;;;;;;5187281;28;19924;-62
2021/07/24 08:42:07;;;;;;;;;;;24.60;68.60;;;;;;5189191;28;19925;-62
2021/07/24 08:44:39;;;;;;;;;;;24.60;68.60;;;;;;5184907;28;19921;-63
2021/07/24 08:47:11;;;;;;;;;;;24.60;68.50;;;;;;5177117;28;19935;-62
2021/07/24 08:49:44;;;;;;;;;;;24.60;68.60;;;;;;5196349;28;20708;-63
2021/07/24 08:52:18;;;;;;;;;;;24.60;68.60;;;;;;5181173;28;20336;-63
2021/07/24 08:54:50;;;;;;;;;;;24.60;68.60;;;;;;5174726;28;19932;-63
2021/07/24 08:57:28;;;;;;;;;;;24.60;68.70;;;;;;5189254;28;19932;-62
2021/07/24 09:00:05;;;;;;;;;;;24.60;68.70;;;;;;5183222;28;19932;-62
2021/07/24 09:02:39;;;;;;;;;;;24.60;68.80;;;;;;5205485;28;20381;-62
2021/07/24 09:05:15;;;;;;;;;;;24.60;68.80;;;;;;5200273;28;19940;-63
2021/07/24 09:07:49;;;;;;;;;;;24.60;68.80;;;;;;4492300;28;10000500;-63
2021/07/24 09:10:21;;;;;;;;;;;24.60;68.80;;;;;;5183592;28;19925;-63
2021/07/24 09:12:56;;;;;;;;;;;24.60;68.90;;;;;;5190819;28;20947;-62
2021/07/24 09:15:28;;;;;;;;;;;24.60;68.80;;;;;;5167681;28;19924;-62
2021/07/24 09:18:01;;;;;;;;;;;24.60;68.90;;;;;;5189607;28;19925;-63
2021/07/24 09:20:34;;;;;;;;;;;24.60;68.90;;;;;;5190682;28;19925;-62
2021/07/24 09:23:25;;;;;;;;;;;24.60;68.90;;;;;;5189359;28;22074;-63
2021/07/24 09:25:57;;;;;;;;;;;24.60;68.90;;;;;;5203660;28;21056;-62
2021/07/24 09:28:30;;;;;;;;;;;24.60;69.00;;;;;;5189203;28;19925;-63
2021/07/24 09:31:20;;;;;;;;;;;24.60;69.00;;;;;;5193899;28;20963;-63
2021/07/24 09:33:54;;;;;;;;;;;24.60;69.00;;;;;;5189160;28;19936;-63
2021/07/24 09:36:33;;;;;;;;;;;24.60;69.00;;;;;;5188644;28;20078;-64
2021/07/24 09:39:13;;;;;;;;;;;24.60;69.10;;;;;;5185184;28;19936;-63
2021/07/24 09:41:46;;;;;;;;;;;24.60;69.10;;;;;;5192734;28;20662;-63
2021/07/24 09:44:29;;;;;;;;;;;24.60;69.10;;;;;;5190999;28;19931;-62
2021/07/24 09:47:01;;;;;;;;;;;24.60;69.10;;;;;;5187033;28;19936;-62
2021/07/24 09:49:35;;;;;;;;;;;24.60;69.00;;;;;;5177346;28;19925;-63
2021/07/24 09:52:11;;;;;;;;;;;24.70;69.10;;;;;;5188639;28;19932;-62
2021/07/24 09:54:44;;;;;;;;;;;24.60;69.00;;;;;;5192312;28;20546;-62
2021/07/24 09:57:32;;;;;;;;;;;24.70;69.00;;;;;;5190456;28;19928;-62
2021/07/24 10:00:24;;;;;;;;;;;24.70;69.00;;;;;;5175029;28;20593;-63
2021/07/24 10:03:00;;;;;;;;;;;24.70;69.00;;;;;;5193873;28;19929;-63
2021/07/24 10:05:34;;;;;;;;;;;24.70;69.00;;;;;;5201227;28;20406;-63
2021/07/24 10:08:12;;;;;;;;;;;24.70;68.90;;;;;;5193516;28;19929;-63
2021/07/24 10:10:49;;;;;;;;;;;24.70;68.90;;;;;;5175654;28;19928;-63
2021/07/24 10:13:22;;;;;;;;;;;24.70;68.90;;;;;;5191180;28;19932;-63
2021/07/24 10:15:56;;;;;;;;;;;24.80;68.90;;;;;;5179940;28;19932;-62
2021/07/24 10:18:28;;;;;;;;;;;24.80;68.90;;;;;;5175759;28;19947;-63
2021/07/24 10:21:01;;;;;;;;;;;24.70;68.90;;;;;;5189566;28;19931;-63
2021/07/24 10:23:34;;;;;;;;;;;24.80;68.90;;;;;;5188108;28;19925;-62
2021/07/24 10:26:15;;;;;;;;;;;24.80;68.90;;;;;;5193810;28;19932;-63
2021/07/24 10:28:56;;;;;;;;;;;24.80;68.90;;;;;;5215786;28;19936;-63
2021/07/24 10:31:47;;;;;;;;;;;24.80;68.90;;;;;;5191091;28;19940;-62
2021/07/24 10:34:24;;;;;;;;;;;24.80;68.80;;;;;;5186657;28;20004;-63
2021/07/24 10:36:57;;;;;;;;;;;24.80;68.80;;;;;;5190776;28;20374;-63
2021/07/24 10:39:29;;;;;;;;;;;24.80;68.80;;;;;;5191386;28;19932;-63
2021/07/24 10:42:08;;;;;;;;;;;24.80;68.80;;;;;;5199742;28;19925;-63
2021/07/24 10:44:41;;;;;;;;;;;24.80;68.80;;;;;;5200920;28;19925;-62
2021/07/24 10:47:15;;;;;;;;;;;24.80;68.90;;;;;;5191825;28;19925;-63
2021/07/24 10:49:49;;;;;;;;;;;24.80;68.90;;;;;;5193043;28;19936;-64
2021/07/24 10:52:22;;;;;;;;;;;24.80;68.90;;;;;;5180639;28;19925;-63
2021/07/24 10:55:02;;;;;;;;;;;24.80;69.00;;;;;;5192395;28;19929;-62
2021/07/24 10:57:43;;;;;;;;;;;24.80;69.30;;;;;;5190935;28;19929;-63
2021/07/24 11:00:18;;;;;;;;;;;24.90;69.70;;;;;;5181461;28;19936;-63
2021/07/24 11:02:50;;;;;;;;;;;24.80;69.70;;;;;;5158560;28;19925;-63
2021/07/24 11:05:23;;;;;;;;;;;24.90;69.70;;;;;;5177784;28;19928;-65
2021/07/24 11:07:57;;;;;;;;;;;24.90;69.80;;;;;;5186765;28;19931;-67
2021/07/24 11:10:30;;;;;;;;;;;24.90;69.60;;;;;;5161652;28;19928;-66
2021/07/24 11:13:02;;;;;;;;;;;25.00;69.50;;;;;;5163296;28;20379;-66
2021/07/24 11:15:38;;;;;;;;;;;25.00;69.30;;;;;;5167887;28;19936;-66
2021/07/24 11:18:21;;;;;;;;;;;25.10;69.20;;;;;;5173384;28;20003;-66
2021/07/24 11:20:53;;;;;;;;;;;25.10;69.10;;;;;;5163531;28;19928;-65
2021/07/24 11:23:26;;;;;;;;;;;25.20;69.00;;;;;;5166497;28;19924;-65
2021/07/24 11:26:05;;;;;;;;;;;25.30;69.10;;;;;;5162925;28;19928;-66
2021/07/24 11:28:45;;;;;;;;;;;25.40;69.00;;;;;;5150343;28;19924;-65
2021/07/24 11:31:17;;;;;;;;;;;25.40;68.80;;;;;;5164193;28;19929;-65
2021/07/24 11:33:50;;;;;;;;;;;25.50;68.80;;;;;;5138697;28;20460;-65
2021/07/24 11:36:22;;;;;;;;;;;25.50;68.60;;;;;;5162498;28;19925;-64
2021/07/24 11:38:58;;;;;;;;;;;25.60;68.60;;;;;;5161853;28;20424;-66
2021/07/24 11:41:31;;;;;;;;;;;25.60;68.50;;;;;;5161521;28;19928;-63
2021/07/24 11:44:04;;;;;;;;;;;25.70;68.50;;;;;;5165311;28;20402;-64
2021/07/24 11:46:36;;;;;;;;;;;25.70;68.40;;;;;;5161914;28;19936;-64
2021/07/24 11:49:08;;;;;;;;;;;25.80;68.20;;;;;;5164837;28;19925;-64
2021/07/24 11:51:41;;;;;;;;;;;25.80;68.10;;;;;;5171012;28;20305;-64
2021/07/24 11:54:13;;;;;;;;;;;25.90;68.10;;;;;;5156517;28;19929;-63
2021/07/24 11:56:50;;;;;;;;;;;25.80;67.90;;;;;;5161452;28;19928;-63
2021/07/24 11:59:22;;;;;;;;;;;25.90;67.80;;;;;;5164870;28;19928;-63
2021/07/24 12:01:56;;;;;;;;;;;26.00;67.90;;;;;;5184600;28;19928;-63
2021/07/24 12:04:28;;;;;;;;;;;26.00;67.90;;;;;;5166585;28;19928;-63
2021/07/24 12:07:04;;;;;;;;;;;26.00;67.70;;;;;;5151632;28;19925;-64
2021/07/24 12:09:36;;;;;;;;;;;26.10;67.70;;;;;;5159874;28;19940;-64
2021/07/24 12:12:08;;;;;;;;;;;26.10;67.50;;;;;;5170065;28;20600;-64
2021/07/24 12:14:41;;;;;;;;;;;26.10;67.40;;;;;;5169597;28;19940;-63
2021/07/24 12:17:14;;;;;;;;;;;26.10;67.30;;;;;;5183946;28;19925;-63
2021/07/24 12:19:46;;;;;;;;;;;26.20;67.20;;;;;;5181752;28;19925;-64
2021/07/24 12:22:23;;;;;;;;;;;26.20;67.10;;;;;;5176850;28;19935;-64
2021/07/24 12:25:10;;;;;;;;;;;26.20;67.00;;;;;;5172488;28;20783;-63
2021/07/24 12:27:49;;;;;;;;;;;26.20;66.90;;;;;;5182328;28;19931;-64
2021/07/24 12:30:25;;;;;;;;;;;26.20;66.80;;;;;;5174597;28;19932;-63
2021/07/24 12:32:57;;;;;;;;;;;26.30;66.80;;;;;;5174770;28;20468;-64
2021/07/24 12:35:29;;;;;;;;;;;26.20;66.60;;;;;;5176434;28;19928;-63
2021/07/24 12:38:04;;;;;;;;;;;26.30;66.50;;;;;;4138983;28;10000477;-64
2021/07/24 12:40:37;;;;;;;;;;;26.30;66.50;;;;;;5161885;28;21238;-63
2021/07/24 12:43:10;;;;;;;;;;;26.30;66.50;;;;;;5171099;28;20274;-63
2021/07/24 12:45:42;;;;;;;;;;;26.30;66.50;;;;;;5178077;28;19925;-63
2021/07/24 12:48:15;;;;;;;;;;;26.30;66.40;;;;;;5176660;28;19929;-63
2021/07/24 12:51:06;;;;;;;;;;;26.30;66.30;;;;;;5181622;28;19925;-63
2021/07/24 12:53:38;;;;;;;;;;;26.30;66.40;;;;;;5193893;28;19931;-64
2021/07/24 12:56:11;;;;;;;;;;;26.40;66.40;;;;;;5172772;28;19932;-64
2021/07/24 12:58:43;;;;;;;;;;;26.30;66.20;;;;;;5172191;28;19944;-63
2021/07/24 13:01:16;;;;;;;;;;;26.40;66.20;;;;;;5167636;28;19929;-63
2021/07/24 13:03:48;;;;;;;;;;;26.40;66.10;;;;;;5177770;28;19929;-63
2021/07/24 13:06:27;;;;;;;;;;;26.40;66.10;;;;;;5177808;28;19943;-64
2021/07/24 13:09:01;;;;;;;;;;;26.40;66.10;;;;;;5171922;28;19925;-64
2021/07/24 13:11:33;;;;;;;;;;;26.40;66.10;;;;;;5191907;28;20417;-64
2021/07/24 13:14:05;;;;;;;;;;;26.40;66.00;;;;;;5178911;28;19929;-63
2021/07/24 13:16:39;;;;;;;;;;;26.40;66.00;;;;;;5174016;28;19929;-64
2021/07/24 13:19:13;;;;;;;;;;;26.40;65.90;;;;;;5176952;28;19928;-64
2021/07/24 13:21:45;;;;;;;;;;;26.40;65.90;;;;;;5174402;28;19996;-63
2021/07/24 13:24:17;;;;;;;;;;;26.40;65.90;;;;;;5165711;28;19932;-64
2021/07/24 13:29:40;;;;;;;;;;;26.40;65.80;;;;;;5169167;28;25546;-63
2021/07/24 13:32:13;;;;;;;;;;;26.50;65.90;;;;;;5178549;28;20321;-64
2021/07/24 13:34:45;;;;;;;;;;;26.50;65.90;;;;;;5173690;28;19932;-63
2021/07/24 13:37:22;;;;;;;;;;;26.40;65.70;;;;;;5180258;28;20301;-63
2021/07/24 13:39:54;;;;;;;;;;;26.50;66.40;;;;;;5170299;28;19931;-64
2021/07/24 13:42:27;;;;;;;;;;;26.50;65.80;;;;;;5178796;28;19925;-64
2021/07/24 13:44:59;;;;;;;;;;;26.50;65.70;;;;;;5175619;28;19928;-63
2021/07/24 13:47:31;;;;;;;;;;;26.50;65.70;;;;;;5178684;28;19925;-63
2021/07/24 13:50:08;;;;;;;;;;;26.50;65.60;;;;;;5181984;28;19936;-63
2021/07/24 13:52:40;;;;;;;;;;;26.50;65.60;;;;;;5180665;28;20431;-64
2021/07/24 13:55:12;;;;;;;;;;;26.50;65.60;;;;;;5172187;28;19929;-63
2021/07/24 13:57:44;;;;;;;;;;;26.50;65.60;;;;;;5186794;28;20572;-64
2021/07/24 14:00:17;;;;;;;;;;;26.50;65.60;;;;;;5182807;28;19932;-64
2021/07/24 14:02:49;;;;;;;;;;;26.50;65.60;;;;;;5180955;28;20514;-64
2021/07/24 14:05:21;;;;;;;;;;;26.50;65.60;;;;;;5174770;28;19924;-64
2021/07/24 14:07:53;;;;;;;;;;;26.50;65.60;;;;;;5175969;28;19936;-64
2021/07/24 14:10:26;;;;;;;;;;;26.50;65.50;;;;;;5177122;28;20262;-63
2021/07/24 14:12:58;;;;;;;;;;;26.50;65.50;;;;;;5170315;28;20007;-64
2021/07/24 14:15:31;;;;;;;;;;;26.50;65.50;;;;;;5171281;28;19929;-64
2021/07/24 14:18:03;;;;;;;;;;;26.50;65.50;;;;;;5180642;28;19925;-64
2021/07/24 14:20:40;;;;;;;;;;;26.50;65.50;;;;;;5180010;28;19925;-64
2021/07/24 14:23:12;;;;;;;;;;;26.50;65.60;;;;;;5170767;28;19928;-64
2021/07/24 14:25:44;;;;;;;;;;;26.50;65.60;;;;;;5172698;28;20373;-64
2021/07/24 14:28:17;;;;;;;;;;;26.40;65.60;;;;;;5174598;28;20373;-63
2021/07/24 14:30:49;;;;;;;;;;;26.40;65.60;;;;;;5175793;28;19925;-63
2021/07/24 14:33:21;;;;;;;;;;;26.40;65.70;;;;;;5177466;28;19925;-64
2021/07/24 14:35:54;;;;;;;;;;;26.40;65.70;;;;;;5180356;28;19936;-64
2021/07/24 14:38:26;;;;;;;;;;;26.40;65.80;;;;;;5184016;28;19936;-64
2021/07/24 14:41:00;;;;;;;;;;;26.40;65.70;;;;;;5177814;28;19921;-64
2021/07/24 14:43:33;;;;;;;;;;;26.40;65.70;;;;;;5196883;28;19929;-64
2021/07/24 14:46:06;;;;;;;;;;;26.40;65.80;;;;;;5187405;28;19932;-63
2021/07/24 14:48:38;;;;;;;;;;;26.40;65.80;;;;;;5179030;28;19928;-63
2021/07/24 14:51:17;;;;;;;;;;;26.40;65.80;;;;;;5184695;28;19932;-64
2021/07/24 14:53:51;;;;;;;;;;;26.40;65.80;;;;;;5182523;28;20407;-64
2021/07/24 14:56:23;;;;;;;;;;;26.40;65.90;;;;;;5182027;28;20003;-63
2021/07/24 14:58:56;;;;;;;;;;;26.40;65.90;;;;;;5173685;28;19925;-64
2021/07/24 15:01:28;;;;;;;;;;;26.40;65.90;;;;;;5190124;28;19929;-64